createdAt,value
2024-02-03T00:00:21.308Z,91.76
2024-02-03T00:06:23.755Z,91.20
2024-02-03T00:12:30.548Z,89.02
2024-02-03T00:18:33.391Z,84.42
2024-02-03T00:24:36.181Z,84.33
2024-02-03T00:30:38.605Z,86.81
2024-02-03T00:36:41.093Z,85.03
2024-02-03T00:42:44.584Z,89.53
2024-02-03T00:48:47.191Z,90.88
2024-02-03T00:54:49.659Z,87.67
2024-02-03T01:00:52.105Z,88.31
2024-02-03T01:06:57.523Z,88.94
2024-02-03T01:12:59.854Z,85.55
2024-02-03T01:19:01.997Z,90.66
2024-02-03T01:25:04.788Z,86.52
2024-02-03T01:31:07.301Z,87.12
2024-02-03T01:37:09.708Z,87.88
2024-02-03T01:43:15.147Z,91.69
2024-02-03T01:49:17.843Z,90.34
2024-02-03T01:55:21.301Z,90.87
2024-02-03T02:01:25.617Z,89.91
2024-02-03T02:07:31.040Z,86.32
2024-02-03T02:13:34.510Z,84.68
2024-02-03T02:19:37.114Z,81.96
2024-02-03T02:25:39.436Z,80.23
2024-02-03T02:31:41.897Z,78.69
2024-02-03T02:37:44.375Z,78.10
2024-02-03T02:43:46.794Z,76.50
2024-02-03T02:49:49.344Z,76.23
2024-02-03T02:55:54.787Z,76.07
2024-02-03T03:01:58.368Z,74.97
2024-02-03T03:08:00.786Z,75.04
2024-02-03T03:14:03.174Z,74.30
2024-02-03T03:20:06.709Z,73.75
2024-02-03T03:26:09.150Z,73.17
2024-02-03T03:32:11.183Z,72.41
2024-02-03T03:38:14.071Z,72.69
2024-02-03T03:44:16.563Z,71.58
2024-02-03T03:50:19.003Z,72.67
2024-02-03T03:56:22.423Z,71.88
2024-02-03T04:02:24.891Z,72.59
2024-02-03T04:08:27.407Z,72.14
2024-02-03T04:14:29.814Z,71.17
2024-02-03T04:20:33.347Z,70.66
2024-02-03T04:26:41.798Z,71.19
2024-02-03T04:32:44.287Z,70.55
2024-02-03T04:38:46.717Z,70.27
2024-02-03T04:44:49.124Z,71.11
2024-02-03T04:50:52.645Z,74.13
2024-02-03T04:56:55.044Z,73.24
2024-02-03T05:03:00.851Z,73.31
2024-02-03T05:09:07.002Z,72.32
2024-02-03T05:15:10.502Z,70.98
2024-02-03T05:21:13.029Z,69.55
2024-02-03T05:27:15.424Z,71.15
2024-02-03T05:33:25.230Z,71.51
2024-02-03T05:39:33.465Z,71.25
2024-02-03T05:45:36.936Z,70.62
2024-02-03T05:51:39.365Z,70.22
2024-02-03T05:57:51.447Z,70.26
2024-02-03T06:03:56.380Z,69.05
2024-02-03T06:09:58.848Z,70.42
2024-02-03T06:16:02.239Z,69.68
2024-02-03T06:22:07.730Z,71.80
2024-02-03T06:28:12.204Z,71.27
2024-02-03T06:34:20.556Z,71.09
2024-02-03T06:40:29.566Z,70.47
2024-02-03T06:46:31.678Z,69.74
2024-02-03T06:52:40.173Z,69.00
2024-02-03T06:58:42.333Z,68.29
2024-02-03T07:04:48.177Z,68.28
2024-02-03T07:10:50.631Z,69.34
2024-02-03T07:16:53.058Z,68.58
2024-02-03T07:22:55.652Z,68.69
2024-02-03T07:29:01.995Z,68.24
2024-02-03T07:35:08.594Z,67.54
2024-02-03T07:41:11.190Z,66.72
2024-02-03T07:47:16.422Z,65.75
2024-02-03T07:53:18.621Z,66.21
2024-02-03T07:59:28.889Z,65.73
2024-02-03T08:05:31.923Z,65.24
2024-02-03T08:11:37.343Z,64.56
2024-02-03T08:17:41.836Z,64.46
2024-02-03T08:23:47.016Z,64.15
2024-02-03T08:29:49.969Z,64.15
2024-02-03T08:35:52.668Z,64.09
2024-02-03T08:41:57.679Z,64.14
2024-02-03T08:48:03.294Z,63.57
2024-02-03T08:54:06.780Z,62.63
2024-02-03T09:00:16.236Z,63.18
2024-02-03T09:06:22.865Z,63.16
2024-02-03T09:12:29.118Z,64.11
2024-02-03T09:18:34.754Z,64.83
2024-02-03T09:24:37.115Z,65.02
2024-02-03T09:30:39.526Z,64.98
2024-02-03T09:42:51.552Z,63.50
2024-02-03T09:48:57.219Z,63.10
2024-02-03T09:55:00.493Z,63.33
2024-02-03T10:01:02.895Z,63.10
2024-02-03T10:07:05.389Z,63.53
2024-02-03T10:13:17.824Z,63.17
2024-02-03T10:19:23.371Z,62.96
2024-02-03T10:25:36.158Z,62.93
2024-02-03T10:31:51.361Z,61.62
2024-02-03T10:37:53.723Z,61.82
2024-02-03T10:44:03.281Z,61.53
2024-02-03T10:50:11.794Z,60.89
2024-02-03T10:56:22.108Z,60.37
2024-02-03T11:02:29.696Z,61.15
2024-02-03T11:08:35.334Z,60.31
2024-02-03T11:14:40.661Z,60.83
2024-02-03T11:20:43.110Z,61.28
2024-02-03T11:27:06.652Z,61.78
2024-02-03T11:33:10.207Z,62.39
2024-02-03T11:39:16.656Z,63.40
2024-02-03T11:45:26.161Z,64.13
2024-02-03T11:51:29.595Z,64.31
2024-02-03T11:57:32.038Z,63.58
2024-02-03T12:03:35.532Z,62.85
2024-02-03T12:09:38.058Z,62.86
2024-02-03T12:15:40.438Z,63.90
2024-02-03T12:21:43.067Z,62.33
2024-02-03T12:27:46.489Z,62.02
2024-02-03T12:33:51.867Z,62.53
2024-02-03T12:39:54.410Z,62.78
2024-02-03T12:46:01.882Z,62.80
2024-02-03T12:52:10.249Z,63.84
2024-02-03T12:58:12.723Z,64.62
2024-02-03T13:04:25.710Z,63.80
2024-02-03T13:10:31.785Z,64.11
2024-02-03T13:16:36.223Z,65.49
2024-02-03T13:22:40.725Z,65.21
2024-02-03T13:28:47.756Z,64.12
2024-02-03T13:35:01.899Z,64.95
2024-02-03T13:41:05.271Z,64.88
2024-02-03T13:47:07.619Z,65.90
2024-02-03T13:53:11.116Z,66.55
2024-02-03T13:59:13.529Z,65.82
2024-02-03T14:05:21.463Z,66.60
2024-02-03T14:11:41.344Z,66.49
2024-02-03T14:17:52.111Z,68.40
2024-02-03T14:23:54.487Z,68.09
2024-02-03T14:30:01.079Z,68.78
2024-02-03T14:36:03.482Z,68.78
2024-02-03T14:42:06.927Z,68.00
2024-02-03T14:48:09.390Z,67.50
2024-02-03T14:54:16.869Z,67.73
2024-02-03T15:00:27.352Z,66.68
2024-02-03T15:06:30.849Z,66.74
2024-02-03T15:12:36.290Z,66.82
2024-02-03T15:18:50.180Z,67.09
2024-02-03T15:24:53.292Z,68.04
2024-02-03T15:30:55.778Z,69.23
2024-02-03T15:37:05.648Z,69.70
2024-02-03T15:43:10.702Z,70.33
2024-02-03T15:49:13.255Z,71.04
2024-02-03T15:55:15.785Z,70.55
2024-02-03T16:01:26.220Z,70.39
2024-02-03T16:07:28.591Z,70.76
2024-02-03T16:13:30.961Z,71.55
2024-02-03T16:19:33.558Z,70.41
2024-02-03T16:25:36.952Z,70.68
2024-02-03T16:31:40.087Z,70.85
2024-02-03T16:37:42.828Z,68.58
2024-02-03T16:43:46.289Z,67.88
2024-02-03T16:49:51.915Z,67.74
2024-02-03T16:55:54.309Z,68.52
2024-02-03T17:01:59.927Z,68.78
2024-02-03T17:08:05.275Z,69.90
2024-02-03T17:14:16.782Z,66.92
2024-02-03T17:20:19.184Z,65.43
2024-02-03T17:26:21.662Z,65.24
2024-02-03T17:32:26.214Z,64.94
2024-02-03T17:38:31.640Z,65.47
2024-02-03T17:44:35.097Z,64.46
2024-02-03T17:50:37.514Z,64.07
2024-02-03T17:56:40.005Z,64.35
2024-02-03T18:02:44.157Z,64.13
2024-02-03T18:08:46.977Z,63.64
2024-02-03T18:14:49.400Z,63.11
2024-02-03T18:20:51.891Z,61.81
2024-02-03T18:26:55.344Z,61.89
2024-02-03T18:32:57.912Z,61.53
2024-02-03T18:39:00.274Z,61.41
2024-02-03T18:45:02.744Z,60.77
2024-02-03T18:51:05.235Z,61.23
2024-02-03T18:57:11.565Z,60.51
2024-02-03T19:03:13.597Z,60.93
2024-02-03T19:09:21.029Z,62.27
2024-02-03T19:15:24.211Z,65.06
2024-02-03T19:21:26.648Z,64.71
2024-02-03T19:27:30.089Z,65.51
2024-02-03T19:33:32.611Z,66.24
2024-02-03T19:39:34.920Z,66.01
2024-02-03T19:45:40.462Z,66.57
2024-02-03T19:51:45.941Z,66.27
2024-02-03T19:57:49.084Z,66.11
2024-02-03T20:03:53.841Z,65.96
2024-02-03T20:09:56.447Z,65.72
2024-02-03T20:15:58.869Z,64.51
2024-02-03T20:22:05.289Z,66.06
2024-02-03T20:28:07.796Z,66.15
2024-02-03T20:34:18.518Z,66.63
2024-02-03T20:40:20.818Z,66.03
2024-02-03T20:46:23.413Z,66.30
2024-02-03T20:52:25.705Z,65.24
2024-02-03T20:58:28.246Z,64.65
2024-02-03T21:04:30.733Z,64.01
2024-02-03T21:10:34.372Z,63.25
2024-02-03T21:16:37.650Z,63.59
2024-02-03T21:22:40.153Z,63.64
2024-02-03T21:28:42.515Z,64.16
2024-02-03T21:34:46.003Z,64.47
2024-02-03T21:40:48.446Z,66.51
2024-02-03T21:46:52.104Z,66.18
2024-02-03T21:52:56.319Z,66.97
2024-02-03T21:59:01.228Z,68.50
2024-02-03T22:05:04.315Z,67.81
2024-02-03T22:11:06.478Z,68.60
2024-02-03T22:17:09.192Z,68.05
2024-02-03T22:23:11.647Z,67.17
2024-02-03T22:29:19.936Z,66.99
2024-02-03T22:35:34.644Z,66.75
2024-02-03T22:41:37.106Z,67.64
2024-02-03T22:47:39.707Z,67.04
2024-02-03T22:53:41.981Z,66.81
2024-02-03T22:59:47.539Z,67.35
2024-02-03T23:05:50.083Z,66.59
2024-02-03T23:11:53.478Z,66.43
2024-02-03T23:17:58.154Z,66.37
2024-02-03T23:24:01.402Z,65.73
2024-02-03T23:30:05.903Z,65.40
2024-02-03T23:36:10.420Z,66.02
2024-02-03T23:42:12.862Z,66.59
2024-02-03T23:48:18.367Z,64.83
2024-02-03T23:54:20.847Z,66.35
